ENQD weather

Brage A Platform
Norway

Public forecast

Using degrees Celsius for public forecast. Weather courtesy of forecast.io.

Closest aviation weather report (METAR) to Brage A Platform

Closest report is Oseberg A Platform, 7.2 nm (13.3 km) WSW. Retrieved 2020/07/09 12:50 UTC (1 hour ago):

ENOA 091250Z 27009KT 9999 FEW025 12/05 Q1014 W///S4

Closest aviation forecast (TAF) to Brage A Platform

Closest forecast is Oseberg A Platform, 7.2 nm (13.3 km) WSW. Retrieved 2020/07/09 12:57 UTC (1 hour ago):

TAF ENOA 091100Z 0912/1012 26012KT 9999 FEW020TCU SCT035 PROB40 TEMPO 0922/1006 SHRA BKN014 SCT020CB BECMG 0923/1002 32012KT